Time;durP1;ratioP1;P1;durP2;ratioP2;P2;SDS_P1;SDS_P2;PMS_P1;PMS_P2;Temp;Humidity;BMP_temperature;BMP_pressure;BME280_temperature;BME280_humidity;BME280_pressure;Samples;Min_cycle;Max_cycle;Signal;HPM_P1;HPM_P2
2021/01/23 00:01:42;;;;;;;55.15;20.52;;;;;;;;;;8305122;28;20360;-70
2021/01/23 00:05:47;;;;;;;42.00;15.73;;;;;;;;;;8288967;28;20494;-70
2021/01/23 00:09:50;;;;;;;38.28;14.88;;;;;;;;;;8303392;28;20482;-70
2021/01/23 00:13:53;;;;;;;35.30;17.33;;;;;;;;;;8305285;28;20459;-70
2021/01/23 00:17:56;;;;;;;33.30;16.05;;;;;;;;;;8302414;28;20471;-70
2021/01/23 00:22:00;;;;;;;34.60;14.38;;;;;;;;;;8289611;28;20356;-70
2021/01/23 00:26:03;;;;;;;42.85;18.35;;;;;;;;;;8285352;28;20375;-70
2021/01/23 00:30:08;;;;;;;71.95;28.83;;;;;;;;;;8289361;28;20395;-71
2021/01/23 00:34:12;;;;;;;30.35;12.98;;;;;;;;;;8288832;28;20048;-70
2021/01/23 00:38:17;;;;;;;29.52;13.10;;;;;;;;;;8266283;28;20483;-70
2021/01/23 00:42:20;;;;;;;27.52;12.65;;;;;;;;;;8283748;28;20041;-70
2021/01/23 00:46:23;;;;;;;73.53;25.80;;;;;;;;;;8282474;28;20360;-70
2021/01/23 00:50:27;;;;;;;40.03;15.32;;;;;;;;;;8267885;28;20548;-70
2021/01/23 00:54:30;;;;;;;22.40;9.13;;;;;;;;;;8284350;28;20467;-72
2021/01/23 00:58:33;;;;;;;22.25;9.05;;;;;;;;;;8282486;28;20478;-71
2021/01/23 01:02:36;;;;;;;26.42;9.50;;;;;;;;;;8284717;28;20382;-71
2021/01/23 01:06:44;;;;;;;46.83;19.23;;;;;;;;;;8267708;28;20467;-70
2021/01/23 01:10:47;;;;;;;20.48;9.77;;;;;;;;;;8294161;28;20208;-69
2021/01/23 01:14:50;;;;;;;20.48;9.48;;;;;;;;;;8294554;28;20387;-70
2021/01/23 01:18:53;;;;;;;29.02;13.60;;;;;;;;;;8307154;28;20456;-69
2021/01/23 01:22:56;;;;;;;17.98;6.65;;;;;;;;;;8295013;28;20501;-70
2021/01/23 01:26:59;;;;;;;23.08;9.88;;;;;;;;;;8294461;28;20382;-70
2021/01/23 01:31:02;;;;;;;14.85;6.28;;;;;;;;;;8293302;28;20379;-70
2021/01/23 01:35:07;;;;;;;27.08;10.63;;;;;;;;;;8309370;28;20044;-71
2021/01/23 01:39:09;;;;;;;11.85;5.85;;;;;;;;;;8309414;28;20370;-70
2021/01/23 01:43:13;;;;;;;12.07;5.93;;;;;;;;;;8294233;28;20044;-70
2021/01/23 01:47:18;;;;;;;23.13;11.82;;;;;;;;;;8294311;28;20474;-71
2021/01/23 01:51:21;;;;;;;14.38;7.40;;;;;;;;;;8292481;28;20482;-70
2021/01/23 01:55:33;;;;;;;13.40;6.68;;;;;;;;;;8294511;28;20048;-70
2021/01/23 01:59:36;;;;;;;15.95;9.00;;;;;;;;;;8309059;28;20357;-71
2021/01/23 02:04:11;;;;;;;40.53;21.17;;;;;;;;;;8293136;28;20379;-70
2021/01/23 02:09:02;;;;;;;71.55;23.23;;;;;;;;;;8291834;28;20375;-71
2021/01/23 02:13:15;;;;;;;20.13;10.30;;;;;;;;;;8292814;28;20459;-71
2021/01/23 02:17:27;;;;;;;15.10;5.95;;;;;;;;;;8307916;28;20482;-71
2021/01/23 02:21:58;;;;;;;20.58;10.32;;;;;;;;;;8306878;28;20367;-72
2021/01/23 02:26:08;;;;;;;11.75;5.40;;;;;;;;;;8292790;28;20040;-71
2021/01/23 02:30:25;;;;;;;25.33;14.73;;;;;;;;;;8307993;28;20040;-71
2021/01/23 02:34:34;;;;;;;20.25;10.93;;;;;;;;;;8275972;28;20360;-71
2021/01/23 02:38:38;;;;;;;16.25;8.57;;;;;;;;;;8306567;28;20467;-71
2021/01/23 02:42:41;;;;;;;16.27;7.93;;;;;;;;;;8306882;28;20471;-71
2021/01/23 02:46:45;;;;;;;12.48;5.10;;;;;;;;;;8291547;28;20371;-70
2021/01/23 02:50:48;;;;;;;16.02;8.02;;;;;;;;;;8292527;28;20376;-71
2021/01/23 02:55:21;;;;;;;14.88;5.93;;;;;;;;;;8292376;28;20471;-70
2021/01/23 02:59:25;;;;;;;13.93;5.28;;;;;;;;;;8289246;28;20382;-70
2021/01/23 03:03:31;;;;;;;13.15;5.43;;;;;;;;;;8290406;28;20360;-70
2021/01/23 03:07:35;;;;;;;11.25;4.95;;;;;;;;;;8291267;28;20386;-70
2021/01/23 03:11:39;;;;;;;11.90;5.35;;;;;;;;;;8289752;28;20370;-70
2021/01/23 03:15:43;;;;;;;16.73;5.55;;;;;;;;;;8306450;28;20527;-70
2021/01/23 03:19:46;;;;;;;10.98;4.28;;;;;;;;;;8290954;28;20520;-71
2021/01/23 03:23:49;;;;;;;8.52;3.85;;;;;;;;;;8306098;28;20108;-70
2021/01/23 03:27:52;;;;;;;9.43;4.93;;;;;;;;;;8290873;28;20048;-70
2021/01/23 03:31:55;;;;;;;12.85;4.88;;;;;;;;;;8288924;28;20490;-71
2021/01/23 03:35:58;;;;;;;8.90;4.68;;;;;;;;;;8290778;28;20477;-70
2021/01/23 03:40:04;;;;;;;14.90;5.70;;;;;;;;;;8290656;28;20525;-71
2021/01/23 03:44:08;;;;;;;10.52;4.65;;;;;;;;;;8290894;28;20356;-71
2021/01/23 03:48:11;;;;;;;20.00;5.18;;;;;;;;;;8305378;28;20477;-71
2021/01/23 03:52:15;;;;;;;8.82;3.88;;;;;;;;;;8288401;28;20479;-71
2021/01/23 03:56:18;;;;;;;10.73;5.20;;;;;;;;;;8290041;28;20417;-71
2021/01/23 04:00:22;;;;;;;8.80;4.43;;;;;;;;;;8305203;28;20497;-70
2021/01/23 04:04:25;;;;;;;10.48;5.10;;;;;;;;;;8304769;28;20411;-70
2021/01/23 04:08:27;;;;;;;16.40;6.70;;;;;;;;;;8290341;28;20360;-70
2021/01/23 04:12:32;;;;;;;12.88;5.40;;;;;;;;;;8290440;28;20378;-70
2021/01/23 04:16:35;;;;;;;17.25;5.60;;;;;;;;;;8290077;28;20356;-71
2021/01/23 04:20:38;;;;;;;11.57;6.07;;;;;;;;;;8304737;28;20382;-70
2021/01/23 04:24:42;;;;;;;9.73;5.72;;;;;;;;;;8289732;28;20386;-69
2021/01/23 04:28:45;;;;;;;10.43;5.38;;;;;;;;;;8288412;28;20364;-69
2021/01/23 04:32:48;;;;;;;18.35;8.15;;;;;;;;;;8289289;28;20053;-69
2021/01/23 04:36:51;;;;;;;13.20;6.28;;;;;;;;;;8304279;28;20482;-69
2021/01/23 04:40:59;;;;;;;16.25;6.88;;;;;;;;;;8290159;28;20048;-69
2021/01/23 04:45:04;;;;;;;14.35;6.97;;;;;;;;;;8293554;28;20045;-69
2021/01/23 04:49:07;;;;;;;13.88;6.28;;;;;;;;;;8295984;28;20479;-69
2021/01/23 04:53:10;;;;;;;16.95;6.50;;;;;;;;;;8295901;28;20406;-69
2021/01/23 04:57:13;;;;;;;19.45;8.95;;;;;;;;;;8296201;28;20383;-69
2021/01/23 05:01:16;;;;;;;16.48;6.45;;;;;;;;;;8293686;28;20056;-70
2021/01/23 05:05:24;;;;;;;12.35;5.68;;;;;;;;;;8295251;28;20402;-69
2021/01/23 05:09:27;;;;;;;14.85;6.05;;;;;;;;;;8310465;28;20455;-69
2021/01/23 05:13:30;;;;;;;11.57;5.22;;;;;;;;;;8295136;28;20485;-69
2021/01/23 05:17:46;;;;;;;8.98;4.90;;;;;;;;;;8295200;28;20053;-69
2021/01/23 05:22:03;;;;;;;8.80;4.38;;;;;;;;;;8297032;28;20463;-69
2021/01/23 05:26:06;;;;;;;7.38;4.13;;;;;;;;;;8295446;28;20356;-69
2021/01/23 05:30:10;;;;;;;7.93;4.55;;;;;;;;;;8294757;28;20356;-69
2021/01/23 05:34:31;;;;;;;11.80;4.47;;;;;;;;;;8294992;28;20383;-69
2021/01/23 05:38:36;;;;;;;9.02;4.65;;;;;;;;;;8294739;28;20459;-69
2021/01/23 05:42:42;;;;;;;6.88;4.07;;;;;;;;;;8295059;28;20456;-69
2021/01/23 05:46:45;;;;;;;12.15;6.97;;;;;;;;;;8294711;28;20426;-70
2021/01/23 05:50:51;;;;;;;13.30;6.30;;;;;;;;;;8292477;28;20410;-69
2021/01/23 05:54:54;;;;;;;13.13;4.60;;;;;;;;;;8293653;28;20376;-69
2021/01/23 05:58:59;;;;;;;8.63;5.80;;;;;;;;;;8293581;28;20375;-70
2021/01/23 06:03:02;;;;;;;11.85;4.95;;;;;;;;;;8308948;28;20451;-69
2021/01/23 06:07:05;;;;;;;12.18;6.70;;;;;;;;;;8293850;28;20482;-69
2021/01/23 06:11:20;;;;;;;16.20;6.50;;;;;;;;;;8295739;28;20505;-69
2021/01/23 06:15:32;;;;;;;17.00;7.65;;;;;;;;;;8293881;28;20049;-70
2021/01/23 06:19:40;;;;;;;18.83;8.88;;;;;;;;;;8293763;28;20379;-69
2021/01/23 06:23:49;;;;;;;13.82;7.32;;;;;;;;;;8293296;28;20455;-69
2021/01/23 06:27:52;;;;;;;14.68;8.07;;;;;;;;;;8296022;28;20371;-70
2021/01/23 06:31:55;;;;;;;16.10;8.23;;;;;;;;;;8299502;28;20355;-69
2021/01/23 06:36:07;;;;;;;20.35;8.27;;;;;;;;;;8326454;28;20465;-69
2021/01/23 06:40:13;;;;;;;14.85;7.05;;;;;;;;;;8325545;28;20386;-69
2021/01/23 06:44:21;;;;;;;14.98;7.03;;;;;;;;;;8325764;28;20063;-70
2021/01/23 06:48:24;;;;;;;12.23;6.60;;;;;;;;;;8325006;28;20074;-69
2021/01/23 06:52:27;;;;;;;19.30;7.25;;;;;;;;;;8325099;28;20048;-70
2021/01/23 06:56:30;;;;;;;17.45;7.00;;;;;;;;;;8325357;28;20386;-70
2021/01/23 07:00:36;;;;;;;17.55;8.00;;;;;;;;;;8318293;28;20699;-70
2021/01/23 07:04:50;;;;;;;16.70;7.82;;;;;;;;;;8290403;28;20379;-70
2021/01/23 07:08:53;;;;;;;13.55;6.88;;;;;;;;;;8289520;28;20417;-70
2021/01/23 07:12:57;;;;;;;15.07;7.40;;;;;;;;;;8288991;28;20382;-70
2021/01/23 07:17:00;;;;;;;16.38;6.45;;;;;;;;;;8304961;28;20378;-75
2021/01/23 07:21:04;;;;;;;13.73;6.60;;;;;;;;;;8289232;28;20102;-71
2021/01/23 07:25:11;;;;;;;13.05;5.82;;;;;;;;;;8287330;28;20379;-70
2021/01/23 07:29:14;;;;;;;12.13;5.70;;;;;;;;;;8290455;28;20044;-70
2021/01/23 07:33:37;;;;;;;11.98;5.43;;;;;;;;;;8289302;28;20384;-70
2021/01/23 07:37:49;;;;;;;12.38;6.47;;;;;;;;;;8289863;28;20382;-70
2021/01/23 07:41:57;;;;;;;7.55;4.63;;;;;;;;;;8289375;28;20195;-70
2021/01/23 07:46:00;;;;;;;8.18;4.78;;;;;;;;;;8268728;28;20048;-70
2021/01/23 07:50:09;;;;;;;13.85;6.78;;;;;;;;;;8290110;28;20383;-70
2021/01/23 07:54:14;;;;;;;18.88;9.00;;;;;;;;;;8288263;28;20395;-70
2021/01/23 07:58:18;;;;;;;17.90;10.70;;;;;;;;;;8304113;28;20375;-70
2021/01/23 08:02:21;;;;;;;21.65;10.65;;;;;;;;;;8301996;28;20475;-71
2021/01/23 08:06:26;;;;;;;29.10;11.88;;;;;;;;;;8284941;28;20479;-70
2021/01/23 08:10:36;;;;;;;23.15;9.27;;;;;;;;;;8288976;28;20451;-71
2021/01/23 08:14:39;;;;;;;20.15;8.70;;;;;;;;;;8286622;28;20471;-70
2021/01/23 08:18:43;;;;;;;15.50;8.63;;;;;;;;;;8288666;28;20475;-71
2021/01/23 08:22:59;;;;;;;470.02;95.68;;;;;;;;;;8288083;28;20483;-71
2021/01/23 08:27:23;;;;;;;70.78;32.58;;;;;;;;;;8287588;28;20382;-70
2021/01/23 08:31:28;;;;;;;85.22;37.85;;;;;;;;;;8288694;28;20455;-71
2021/01/23 08:35:35;;;;;;;708.22;234.50;;;;;;;;;;8285890;28;20056;-70
2021/01/23 08:39:49;;;;;;;409.83;151.30;;;;;;;;;;8288739;28;20379;-70
2021/01/23 08:43:52;;;;;;;38.92;18.55;;;;;;;;;;8287610;28;20421;-78
2021/01/23 08:47:54;;;;;;;21.80;9.45;;;;;;;;;;8286228;28;20356;-70
2021/01/23 08:51:59;;;;;;;15.68;8.00;;;;;;;;;;8288339;28;20356;-71
2021/01/23 08:56:02;;;;;;;19.00;7.25;;;;;;;;;;8287098;28;20463;-71
2021/01/23 09:00:13;;;;;;;15.98;7.75;;;;;;;;;;8236753;28;20063;-71
2021/01/23 09:04:16;;;;;;;22.13;9.55;;;;;;;;;;8283271;28;20444;-71
2021/01/23 09:08:19;;;;;;;17.67;6.93;;;;;;;;;;8287867;28;20414;-74
2021/01/23 09:12:22;;;;;;;23.73;9.15;;;;;;;;;;8287731;28;20091;-70
2021/01/23 09:16:26;;;;;;;25.55;9.43;;;;;;;;;;8286981;28;20391;-71
2021/01/23 09:20:29;;;;;;;25.60;9.73;;;;;;;;;;8288236;28;20378;-71
2021/01/23 09:24:32;;;;;;;16.20;7.38;;;;;;;;;;8286803;28;20386;-70
2021/01/23 09:28:36;;;;;;;19.23;7.30;;;;;;;;;;8291182;28;20382;-71
2021/01/23 09:32:39;;;;;;;18.88;8.73;;;;;;;;;;8294262;28;20079;-71
2021/01/23 09:36:43;;;;;;;20.60;7.68;;;;;;;;;;8293400;28;20387;-71
2021/01/23 09:40:47;;;;;;;18.25;8.35;;;;;;;;;;8308817;28;20352;-73
2021/01/23 09:44:51;;;;;;;17.75;8.32;;;;;;;;;;8293357;28;20379;-71
2021/01/23 09:48:54;;;;;;;16.13;7.30;;;;;;;;;;8308448;28;20113;-72
2021/01/23 09:53:00;;;;;;;12.45;6.30;;;;;;;;;;8304587;28;20326;-72
2021/01/23 09:57:04;;;;;;;14.60;6.50;;;;;;;;;;8318856;28;20106;-71
2021/01/23 10:01:08;;;;;;;12.10;5.90;;;;;;;;;;8308117;28;20467;-72
2021/01/23 10:05:13;;;;;;;14.38;6.03;;;;;;;;;;8290603;28;20405;-72
2021/01/23 10:09:17;;;;;;;13.90;5.15;;;;;;;;;;8296332;28;20458;-75
2021/01/23 10:13:20;;;;;;;13.50;6.00;;;;;;;;;;8254765;28;20660;-71
2021/01/23 10:17:24;;;;;;;14.85;6.15;;;;;;;;;;8255156;28;20568;-72
2021/01/23 10:21:28;;;;;;;122.25;44.90;;;;;;;;;;8288292;28;20471;-72
2021/01/23 10:25:31;;;;;;;58.33;19.58;;;;;;;;;;8286781;28;20062;-72
2021/01/23 10:29:35;;;;;;;38.40;12.55;;;;;;;;;;8288621;28;20356;-72
2021/01/23 10:33:38;;;;;;;18.38;8.00;;;;;;;;;;8289574;28;20182;-73
2021/01/23 10:37:41;;;;;;;10.30;4.68;;;;;;;;;;8293660;28;20370;-72
2021/01/23 10:41:45;;;;;;;17.27;6.32;;;;;;;;;;8263489;28;20052;-72
2021/01/23 10:45:49;;;;;;;8.20;4.88;;;;;;;;;;8324023;28;20074;-73
2021/01/23 10:49:52;;;;;;;14.57;5.45;;;;;;;;;;8324646;28;20359;-72
2021/01/23 10:53:55;;;;;;;15.75;6.65;;;;;;;;;;8323487;28;20384;-72
2021/01/23 10:57:59;;;;;;;21.10;7.68;;;;;;;;;;8320344;28;20405;-75
2021/01/23 11:02:02;;;;;;;34.13;12.90;;;;;;;;;;8322526;28;20383;-73
2021/01/23 11:06:06;;;;;;;28.83;11.20;;;;;;;;;;8321141;28;20389;-73
2021/01/23 11:10:11;;;;;;;24.63;8.32;;;;;;;;;;8323071;28;20455;-73
2021/01/23 11:14:14;;;;;;;33.40;10.77;;;;;;;;;;8304838;28;20466;-74
2021/01/23 11:18:18;;;;;;;231.93;68.10;;;;;;;;;;8322050;28;20419;-73
2021/01/23 11:22:21;;;;;;;37.83;13.25;;;;;;;;;;8322743;28;20482;-73
2021/01/23 11:26:24;;;;;;;24.60;8.15;;;;;;;;;;8319700;28;20469;-73
2021/01/23 11:30:27;;;;;;;19.10;7.38;;;;;;;;;;8322892;28;20467;-73
2021/01/23 11:34:30;;;;;;;21.58;8.35;;;;;;;;;;8321094;28;20385;-73
2021/01/23 11:38:34;;;;;;;21.25;7.88;;;;;;;;;;8322020;28;20474;-73
2021/01/23 11:42:37;;;;;;;13.57;6.35;;;;;;;;;;8320903;28;20381;-73
2021/01/23 11:46:43;;;;;;;17.55;6.72;;;;;;;;;;8317869;28;20470;-73
2021/01/23 11:50:46;;;;;;;5.18;2.78;;;;;;;;;;8320951;28;20424;-74
2021/01/23 11:54:50;;;;;;;3.75;2.25;;;;;;;;;;8316965;28;20433;-73
2021/01/23 11:58:54;;;;;;;3.05;2.00;;;;;;;;;;8320804;28;20374;-72
2021/01/23 12:02:57;;;;;;;5.05;2.13;;;;;;;;;;8321282;28;20450;-71
2021/01/23 12:07:01;;;;;;;5.65;2.28;;;;;;;;;;8319501;28;20454;-71
2021/01/23 12:11:04;;;;;;;11.63;4.13;;;;;;;;;;8319085;28;20477;-70
2021/01/23 12:15:10;;;;;;;15.73;6.85;;;;;;;;;;8319197;28;20496;-73
2021/01/23 12:19:13;;;;;;;27.80;11.32;;;;;;;;;;8320075;28;20477;-71
2021/01/23 12:23:17;;;;;;;39.22;16.75;;;;;;;;;;8320507;28;20451;-71
2021/01/23 12:27:21;;;;;;;26.20;11.32;;;;;;;;;;8334922;28;20449;-71
2021/01/23 12:31:24;;;;;;;22.38;8.40;;;;;;;;;;8334524;28;20405;-71
2021/01/23 12:35:28;;;;;;;41.92;21.15;;;;;;;;;;8317921;28;20377;-71
2021/01/23 12:39:30;;;;;;;25.67;9.73;;;;;;;;;;8319197;28;20483;-73
2021/01/23 12:43:34;;;;;;;98.07;34.67;;;;;;;;;;8316146;28;20049;-72
2021/01/23 12:47:37;;;;;;;31.67;10.73;;;;;;;;;;8288045;28;20075;-71
2021/01/23 12:51:41;;;;;;;15.95;7.25;;;;;;;;;;8287633;28;20430;-72
2021/01/23 12:55:45;;;;;;;11.60;4.70;;;;;;;;;;8300099;28;20379;-71
2021/01/23 12:59:48;;;;;;;12.27;5.35;;;;;;;;;;8288173;28;20663;-72
2021/01/23 13:03:51;;;;;;;20.60;8.57;;;;;;;;;;8305517;28;20493;-71
2021/01/23 13:07:54;;;;;;;26.55;9.45;;;;;;;;;;8293119;28;20455;-71
2021/01/23 13:11:57;;;;;;;13.10;6.95;;;;;;;;;;8292444;28;20485;-72
2021/01/23 13:16:00;;;;;;;23.20;9.50;;;;;;;;;;8291414;28;20414;-71
2021/01/23 13:20:05;;;;;;;26.27;9.95;;;;;;;;;;8290917;28;20371;-71
2021/01/23 13:24:09;;;;;;;66.50;22.80;;;;;;;;;;8292437;28;20037;-71
2021/01/23 13:28:12;;;;;;;22.92;9.38;;;;;;;;;;8291451;28;20086;-72
2021/01/23 13:32:16;;;;;;;35.75;15.15;;;;;;;;;;8297909;28;20041;-72
2021/01/23 13:36:21;;;;;;;33.13;17.27;;;;;;;;;;8313345;28;20377;-72
2021/01/23 13:40:25;;;;;;;29.75;12.98;;;;;;;;;;8325196;28;20414;-71
2021/01/23 13:44:28;;;;;;;27.13;12.32;;;;;;;;;;8313151;28;20383;-71
2021/01/23 13:48:31;;;;;;;22.60;10.38;;;;;;;;;;8290822;28;20378;-71
2021/01/23 13:52:34;;;;;;;24.23;10.60;;;;;;;;;;8293384;28;20356;-71
2021/01/23 13:56:38;;;;;;;20.20;9.75;;;;;;;;;;8291064;28;20451;-71
2021/01/23 14:00:42;;;;;;;24.15;9.57;;;;;;;;;;8290802;28;20410;-71
2021/01/23 14:04:45;;;;;;;23.75;10.13;;;;;;;;;;8290865;28;20466;-72
2021/01/23 14:08:51;;;;;;;29.60;9.95;;;;;;;;;;8289749;28;20391;-71
2021/01/23 14:12:57;;;;;;;27.93;8.97;;;;;;;;;;8290660;28;20054;-71
2021/01/23 14:17:00;;;;;;;30.25;9.98;;;;;;;;;;8305443;28;20411;-71
2021/01/23 14:21:06;;;;;;;30.08;9.57;;;;;;;;;;8292360;28;20498;-71
2021/01/23 14:25:09;;;;;;;27.10;10.63;;;;;;;;;;8290684;28;20075;-73
2021/01/23 14:29:14;;;;;;;71.97;20.98;;;;;;;;;;8292294;28;20134;-71
2021/01/23 14:33:17;;;;;;;54.60;21.33;;;;;;;;;;8291878;28;20045;-72
2021/01/23 14:37:23;;;;;;;49.72;20.20;;;;;;;;;;8322181;28;20482;-71
2021/01/23 14:41:26;;;;;;;116.47;41.33;;;;;;;;;;8241028;28;20056;-73
2021/01/23 14:45:29;;;;;;;45.22;17.92;;;;;;;;;;8303482;28;20455;-71
2021/01/23 14:49:32;;;;;;;116.32;26.98;;;;;;;;;;8304709;28;20375;-72
2021/01/23 14:53:37;;;;;;;398.75;103.55;;;;;;;;;;8289040;28;20394;-71
2021/01/23 14:57:40;;;;;;;98.13;28.08;;;;;;;;;;8291383;28;20455;-72
2021/01/23 15:01:44;;;;;;;82.20;26.60;;;;;;;;;;8291589;28;20368;-71
2021/01/23 15:05:51;;;;;;;111.70;30.85;;;;;;;;;;8290270;28;20459;-71
2021/01/23 15:09:57;;;;;;;67.25;22.20;;;;;;;;;;8306159;28;20170;-72
2021/01/23 15:14:01;;;;;;;55.03;19.60;;;;;;;;;;8290580;28;20475;-71
2021/01/23 15:18:06;;;;;;;52.08;19.50;;;;;;;;;;8289383;28;20485;-73
2021/01/23 15:22:09;;;;;;;59.97;22.50;;;;;;;;;;8305302;28;20080;-71
2021/01/23 15:26:12;;;;;;;90.53;29.15;;;;;;;;;;8288639;28;20378;-72
2021/01/23 15:30:17;;;;;;;76.00;24.60;;;;;;;;;;8305869;28;20474;-72
2021/01/23 15:34:21;;;;;;;66.65;23.63;;;;;;;;;;8289355;28;20044;-73
2021/01/23 15:38:25;;;;;;;94.10;29.08;;;;;;;;;;8288298;28;20521;-75
2021/01/23 15:42:28;;;;;;;82.03;25.95;;;;;;;;;;8287688;28;20390;-74
2021/01/23 15:46:31;;;;;;;82.57;26.95;;;;;;;;;;8288287;28;20490;-72
2021/01/23 15:50:35;;;;;;;66.60;24.27;;;;;;;;;;8290552;28;20383;-73
2021/01/23 15:54:39;;;;;;;46.10;18.27;;;;;;;;;;8288881;28;20393;-74
2021/01/23 15:58:42;;;;;;;40.00;17.05;;;;;;;;;;8289418;28;20493;-75
2021/01/23 16:02:46;;;;;;;130.50;57.00;;;;;;;;;;8289959;28;20463;-75
2021/01/23 16:06:50;;;;;;;116.93;53.47;;;;;;;;;;8302984;28;20517;-73
2021/01/23 16:10:54;;;;;;;114.80;49.28;;;;;;;;;;8289713;28;20387;-74
2021/01/23 16:14:58;;;;;;;95.75;37.92;;;;;;;;;;8286762;28;20425;-74
2021/01/23 16:19:03;;;;;;;111.70;39.38;;;;;;;;;;8290073;28;20459;-73
2021/01/23 16:23:11;;;;;;;122.43;47.67;;;;;;;;;;8288183;28;20459;-75
2021/01/23 16:27:16;;;;;;;129.75;43.22;;;;;;;;;;8299958;28;20056;-75
2021/01/23 16:31:19;;;;;;;122.93;45.75;;;;;;;;;;8287056;28;20071;-75
2021/01/23 16:35:22;;;;;;;113.00;43.63;;;;;;;;;;8285853;28;20502;-75
2021/01/23 16:39:26;;;;;;;92.47;39.70;;;;;;;;;;8284937;28;20731;-75
2021/01/23 16:43:29;;;;;;;114.00;48.45;;;;;;;;;;8285029;28;20053;-74
2021/01/23 16:47:33;;;;;;;110.43;49.28;;;;;;;;;;8301443;28;20493;-73
2021/01/23 16:51:36;;;;;;;64.35;27.77;;;;;;;;;;8261285;28;20076;-73
2021/01/23 16:55:40;;;;;;;61.85;24.85;;;;;;;;;;8255174;28;20490;-73
2021/01/23 16:59:43;;;;;;;49.25;21.60;;;;;;;;;;8263811;28;20068;-75
2021/01/23 17:03:46;;;;;;;109.32;43.20;;;;;;;;;;8279811;28;20477;-75
2021/01/23 17:07:49;;;;;;;141.05;62.25;;;;;;;;;;8263877;28;20497;-74
2021/01/23 17:11:52;;;;;;;98.53;41.80;;;;;;;;;;8269158;28;20469;-74
2021/01/23 17:15:56;;;;;;;163.00;65.30;;;;;;;;;;8312149;28;20390;-73
2021/01/23 17:19:59;;;;;;;217.70;74.65;;;;;;;;;;8283976;28;20474;-75
2021/01/23 17:24:04;;;;;;;215.02;86.35;;;;;;;;;;8294851;28;20363;-74
2021/01/23 17:28:08;;;;;;;188.15;82.45;;;;;;;;;;8282517;28;20408;-73
2021/01/23 17:32:11;;;;;;;80.20;30.55;;;;;;;;;;8311970;28;20047;-73
2021/01/23 17:36:23;;;;;;;146.82;47.03;;;;;;;;;;8298230;28;20475;-74
2021/01/23 17:40:40;;;;;;;80.38;31.63;;;;;;;;;;8276943;28;20414;-73
2021/01/23 17:44:44;;;;;;;82.07;30.83;;;;;;;;;;8253189;28;20497;-72
2021/01/23 17:48:47;;;;;;;79.63;30.02;;;;;;;;;;8266323;28;20475;-73
2021/01/23 17:52:52;;;;;;;52.83;20.35;;;;;;;;;;8257352;28;20488;-73
2021/01/23 17:56:55;;;;;;;69.97;26.60;;;;;;;;;;8271194;28;20387;-72
2021/01/23 18:00:58;;;;;;;199.38;62.58;;;;;;;;;;8238956;28;20483;-73
2021/01/23 18:05:02;;;;;;;163.48;52.65;;;;;;;;;;8279797;28;20495;-75
2021/01/23 18:14:12;;;;;;;131.13;48.60;;;;;;;;;;8249452;28;20405;-73
2021/01/23 18:18:16;;;;;;;167.23;64.45;;;;;;;;;;8280771;28;20049;-74
2021/01/23 18:22:19;;;;;;;183.55;69.68;;;;;;;;;;8273934;28;20057;-73
2021/01/23 18:26:22;;;;;;;129.52;46.92;;;;;;;;;;8281693;28;20545;-72
2021/01/23 18:30:26;;;;;;;113.93;40.90;;;;;;;;;;8288768;28;20040;-72
2021/01/23 18:34:31;;;;;;;158.00;59.50;;;;;;;;;;8259946;28;20463;-74
2021/01/23 18:38:35;;;;;;;122.95;46.30;;;;;;;;;;8253748;28;20057;-73
2021/01/23 18:42:42;;;;;;;77.72;35.75;;;;;;;;;;8255067;28;20087;-74
2021/01/23 18:46:50;;;;;;;78.25;33.03;;;;;;;;;;8256462;28;20471;-73
2021/01/23 18:50:53;;;;;;;89.95;37.13;;;;;;;;;;8243133;28;20357;-72
2021/01/23 18:54:56;;;;;;;115.13;39.65;;;;;;;;;;8254914;28;20498;-74
2021/01/23 18:59:00;;;;;;;107.22;40.28;;;;;;;;;;8257213;28;20464;-73
2021/01/23 19:03:05;;;;;;;87.32;33.08;;;;;;;;;;8257610;28;20068;-72
2021/01/23 19:07:08;;;;;;;135.65;46.00;;;;;;;;;;8256637;28;20379;-73
2021/01/23 19:11:13;;;;;;;120.75;49.33;;;;;;;;;;8291744;28;20485;-72
2021/01/23 19:15:17;;;;;;;89.43;38.22;;;;;;;;;;8286180;28;20581;-72
2021/01/23 19:19:21;;;;;;;73.47;31.35;;;;;;;;;;8287058;28;20048;-73
2021/01/23 19:23:25;;;;;;;99.78;35.40;;;;;;;;;;8269670;28;20401;-73
2021/01/23 19:28:02;;;;;;;82.18;28.88;;;;;;;;;;8288421;28;20371;-76
2021/01/23 19:32:10;;;;;;;62.40;21.80;;;;;;;;;;8303867;28;20483;-74
2021/01/23 19:36:17;;;;;;;82.68;31.75;;;;;;;;;;8338664;28;20070;-74
2021/01/23 19:40:20;;;;;;;83.60;29.40;;;;;;;;;;8288387;28;20469;-74
2021/01/23 19:44:25;;;;;;;88.85;34.67;;;;;;;;;;8287663;28;20469;-73
2021/01/23 19:48:30;;;;;;;92.82;36.33;;;;;;;;;;8289735;28;20498;-74
2021/01/23 19:52:33;;;;;;;127.18;45.47;;;;;;;;;;8288864;28;20375;-73
2021/01/23 19:56:37;;;;;;;100.53;33.97;;;;;;;;;;8288724;28;20364;-74
2021/01/23 20:00:40;;;;;;;84.65;28.80;;;;;;;;;;8284925;28;20375;-74
2021/01/23 20:04:45;;;;;;;86.57;31.77;;;;;;;;;;8284859;28;20482;-75
2021/01/23 20:08:51;;;;;;;76.07;31.35;;;;;;;;;;8284593;28;20041;-74
2021/01/23 20:12:54;;;;;;;57.83;22.40;;;;;;;;;;8285746;28;20379;-74
2021/01/23 20:16:58;;;;;;;93.38;31.55;;;;;;;;;;8270128;28;20383;-74
2021/01/23 20:21:02;;;;;;;97.47;33.90;;;;;;;;;;8275693;28;20052;-73
2021/01/23 20:25:06;;;;;;;115.82;38.83;;;;;;;;;;8273361;28;20353;-77
2021/01/23 20:29:09;;;;;;;128.57;44.47;;;;;;;;;;8257252;28;20436;-74
2021/01/23 20:33:15;;;;;;;103.35;41.53;;;;;;;;;;8252535;28;20379;-73
2021/01/23 20:37:19;;;;;;;110.85;43.22;;;;;;;;;;8255720;28;20375;-74
2021/01/23 20:41:22;;;;;;;170.82;52.45;;;;;;;;;;8270168;28;20382;-73
2021/01/23 20:45:27;;;;;;;227.40;72.72;;;;;;;;;;8256216;28;20067;-73
2021/01/23 20:49:30;;;;;;;210.40;66.18;;;;;;;;;;8267808;28;20406;-73
2021/01/23 20:53:34;;;;;;;279.27;81.20;;;;;;;;;;8284817;28;20418;-75
2021/01/23 20:57:38;;;;;;;279.20;89.55;;;;;;;;;;8250743;28;20101;-75
2021/01/23 21:01:41;;;;;;;313.30;101.85;;;;;;;;;;8267878;28;20483;-74
2021/01/23 21:05:45;;;;;;;238.02;92.13;;;;;;;;;;8267350;28;20374;-74
2021/01/23 21:09:48;;;;;;;216.25;80.68;;;;;;;;;;8253356;28;20430;-74
2021/01/23 21:13:52;;;;;;;172.93;65.03;;;;;;;;;;8252633;28;20075;-74
2021/01/23 21:17:56;;;;;;;201.57;69.57;;;;;;;;;;8274066;28;20387;-74
2021/01/23 21:22:01;;;;;;;207.90;67.78;;;;;;;;;;8254940;28;20107;-74
2021/01/23 21:26:05;;;;;;;248.57;77.70;;;;;;;;;;8259926;28;20483;-74
2021/01/23 21:30:09;;;;;;;564.97;126.97;;;;;;;;;;8268590;28;20426;-74
2021/01/23 21:34:13;;;;;;;383.35;104.10;;;;;;;;;;8259216;28;20387;-74
2021/01/23 21:38:16;;;;;;;461.50;121.57;;;;;;;;;;8257469;28;20388;-74
2021/01/23 21:42:20;;;;;;;359.77;94.85;;;;;;;;;;8226731;28;20075;-72
2021/01/23 21:46:26;;;;;;;328.80;93.65;;;;;;;;;;8279893;28;20472;-74
2021/01/23 21:50:29;;;;;;;243.45;84.20;;;;;;;;;;8291999;28;20404;-76
2021/01/23 21:54:34;;;;;;;267.70;109.15;;;;;;;;;;8291844;28;20409;-74
2021/01/23 21:58:38;;;;;;;205.77;80.50;;;;;;;;;;8304737;28;20074;-74
2021/01/23 22:02:42;;;;;;;216.77;79.78;;;;;;;;;;8303645;28;20405;-74
2021/01/23 22:06:49;;;;;;;203.67;70.17;;;;;;;;;;8302677;28;20490;-73
2021/01/23 22:10:52;;;;;;;189.80;63.60;;;;;;;;;;8321310;28;20044;-73
2021/01/23 22:14:56;;;;;;;161.77;63.40;;;;;;;;;;8321032;28;20056;-74
2021/01/23 22:19:00;;;;;;;141.68;57.00;;;;;;;;;;8320357;28;20487;-73
2021/01/23 22:23:04;;;;;;;173.18;60.67;;;;;;;;;;8321151;28;20075;-73
2021/01/23 22:27:08;;;;;;;178.40;65.82;;;;;;;;;;8316473;28;20385;-73
2021/01/23 22:31:11;;;;;;;174.65;64.57;;;;;;;;;;8259025;28;20375;-74
2021/01/23 22:35:14;;;;;;;144.93;53.30;;;;;;;;;;8280713;28;20455;-75
2021/01/23 22:39:18;;;;;;;130.73;48.47;;;;;;;;;;8286276;28;20490;-73
2021/01/23 22:43:21;;;;;;;150.52;52.40;;;;;;;;;;8292326;28;20045;-74
2021/01/23 22:47:24;;;;;;;140.57;51.30;;;;;;;;;;8266411;28;20468;-74
2021/01/23 22:51:27;;;;;;;138.45;53.55;;;;;;;;;;8259706;28;20451;-74
2021/01/23 22:55:30;;;;;;;188.82;62.22;;;;;;;;;;8240212;28;20501;-74
2021/01/23 22:59:34;;;;;;;407.35;110.78;;;;;;;;;;8258830;28;20061;-74
2021/01/23 23:03:37;;;;;;;380.55;98.43;;;;;;;;;;8258691;28;20364;-74
2021/01/23 23:07:40;;;;;;;271.40;77.43;;;;;;;;;;8257700;28;20487;-74
2021/01/23 23:11:45;;;;;;;288.38;72.22;;;;;;;;;;8257130;28;20494;-74
2021/01/23 23:15:48;;;;;;;160.88;49.75;;;;;;;;;;8256292;28;20480;-73
2021/01/23 23:19:51;;;;;;;149.35;47.10;;;;;;;;;;8258669;28;20126;-73
2021/01/23 23:23:58;;;;;;;125.50;40.22;;;;;;;;;;8258295;28;20471;-73
2021/01/23 23:28:07;;;;;;;114.22;34.38;;;;;;;;;;8257440;28;20464;-74
2021/01/23 23:32:10;;;;;;;114.47;32.00;;;;;;;;;;8269674;28;20395;-73
2021/01/23 23:36:13;;;;;;;54.00;20.58;;;;;;;;;;8286990;28;20649;-74
2021/01/23 23:40:17;;;;;;;56.75;21.88;;;;;;;;;;8287874;28;20053;-73
2021/01/23 23:44:20;;;;;;;65.00;17.02;;;;;;;;;;8275438;28;20471;-74
2021/01/23 23:48:23;;;;;;;30.70;8.65;;;;;;;;;;8258238;28;20072;-74
2021/01/23 23:52:27;;;;;;;85.68;20.60;;;;;;;;;;8267021;28;20387;-74
2021/01/23 23:56:30;;;;;;;27.02;9.02;;;;;;;;;;8290137;28;20375;-73
